Time;durP1;ratioP1;P1;durP2;ratioP2;P2;SDS_P1;SDS_P2;PMS_P1;PMS_P2;Temp;Humidity;BMP_temperature;BMP_pressure;BME280_temperature;BME280_humidity;BME280_pressure;Samples;Min_cycle;Max_cycle;Signal;HPM_P1;HPM_P2
2023/01/15 00:01:28;;;;;;;;;;;;;;;13.85;49.73;99215.88;4965015;27;100490;-67
2023/01/15 00:03:55;;;;;;;;;;;;;;;13.86;49.49;99206.63;4964385;27;98350;-67
2023/01/15 00:06:21;;;;;;;;;;;;;;;13.86;49.67;99198.50;4982320;27;97930;-67
2023/01/15 00:08:47;;;;;;;;;;;;;;;13.86;49.47;99196.59;4967076;27;109820;-67
2023/01/15 00:11:13;;;;;;;;;;;;;;;13.87;49.33;99189.25;4982391;27;98579;-67
2023/01/15 00:13:40;;;;;;;;;;;;;;;13.86;49.78;99183.03;4983687;27;98412;-67
2023/01/15 00:16:10;;;;;;;;;;;;;;;13.88;49.60;99182.75;4963856;27;106942;-67
2023/01/15 00:18:36;;;;;;;;;;;;;;;13.87;49.24;99175.72;4965879;27;99168;-68
2023/01/15 00:21:03;;;;;;;;;;;;;;;13.88;49.45;99180.81;4965524;27;99348;-68
2023/01/15 00:28:59;;;;;;;;;;;;;;;13.90;49.33;99159.63;4982753;27;97927;-68
2023/01/15 00:31:25;;;;;;;;;;;;;;;13.91;49.59;99163.13;4976441;27;100355;-68
2023/01/15 00:33:51;;;;;;;;;;;;;;;13.92;49.64;99167.44;4982747;27;128045;-68
2023/01/15 00:36:17;;;;;;;;;;;;;;;13.92;49.63;99162.03;4964136;27;126539;-68
2023/01/15 00:38:43;;;;;;;;;;;;;;;13.92;49.39;99168.22;4965686;27;106480;-67
2023/01/15 00:41:09;;;;;;;;;;;;;;;13.94;49.35;99165.19;4964864;27;127266;-68
2023/01/15 00:43:35;;;;;;;;;;;;;;;13.94;49.63;99141.59;4961860;27;115874;-67
2023/01/15 00:46:04;;;;;;;;;;;;;;;13.94;49.73;99132.69;4966493;27;103867;-68
2023/01/15 00:48:30;;;;;;;;;;;;;;;13.97;49.48;99138.25;4967458;27;98019;-68
2023/01/15 00:50:56;;;;;;;;;;;;;;;14.04;49.47;99128.84;4964439;27;124154;-67
2023/01/15 00:53:22;;;;;;;;;;;;;;;14.12;49.48;99128.84;4961236;27;102821;-67
2023/01/15 00:55:48;;;;;;;;;;;;;;;14.20;49.68;99129.94;4987096;27;128043;-67
2023/01/15 00:58:14;;;;;;;;;;;;;;;14.26;49.72;99120.50;5003616;27;121850;-68
2023/01/15 01:00:40;;;;;;;;;;;;;;;14.32;49.63;99118.41;4983208;27;127764;-68
2023/01/15 01:03:05;;;;;;;;;;;;;;;14.37;49.34;99115.53;4967119;27;130430;-68
2023/01/15 01:05:32;;;;;;;;;;;;;;;14.38;49.61;99098.94;4974884;27;99381;-67
2023/01/15 01:07:58;;;;;;;;;;;;;;;14.43;49.40;99104.19;4985265;27;98081;-68
2023/01/15 01:10:27;;;;;;;;;;;;;;;14.45;49.68;99099.22;4970520;27;99800;-67
2023/01/15 01:12:53;;;;;;;;;;;;;;;14.47;49.34;99096.97;4998089;27;124150;-67
2023/01/15 01:15:19;;;;;;;;;;;;;;;14.50;49.67;99092.84;4969450;27;98154;-68
2023/01/15 01:17:45;;;;;;;;;;;;;;;14.52;49.73;99092.53;4986738;27;99800;-67
2023/01/15 01:20:15;;;;;;;;;;;;;;;14.54;49.67;99087.56;5000648;27;116059;-67
2023/01/15 01:22:41;;;;;;;;;;;;;;;14.56;49.68;99079.91;4966336;27;106784;-67
2023/01/15 01:25:07;;;;;;;;;;;;;;;14.56;49.63;99079.91;4987902;27;98039;-67
2023/01/15 01:27:33;;;;;;;;;;;;;;;14.57;49.54;99081.50;4972592;27;100692;-67
2023/01/15 01:29:59;;;;;;;;;;;;;;;14.57;49.61;99076.84;4965452;27;122596;-67
2023/01/15 01:32:25;;;;;;;;;;;;;;;14.58;49.67;99080.38;4984297;27;129020;-67
2023/01/15 01:34:51;;;;;;;;;;;;;;;14.57;49.62;99071.44;4965814;27;124050;-68
2023/01/15 01:37:17;;;;;;;;;;;;;;;14.59;49.51;99049.44;4967243;27;122380;-67
2023/01/15 01:39:43;;;;;;;;;;;;;;;14.58;49.84;99054.06;4964507;27;112473;-67
2023/01/15 01:42:12;;;;;;;;;;;;;;;14.59;49.65;99047.50;4999692;27;128958;-67
2023/01/15 01:44:38;;;;;;;;;;;;;;;14.58;49.50;99051.34;4975430;27;98140;-67
2023/01/15 01:47:14;;;;;;;;;;;;;;;14.58;49.56;99054.06;5002089;27;98217;-67
2023/01/15 01:49:40;;;;;;;;;;;;;;;14.59;49.52;99052.16;4981124;27;99901;-67
2023/01/15 01:52:08;;;;;;;;;;;;;;;14.58;49.58;99043.22;4981422;27;105989;-68
2023/01/15 01:54:34;;;;;;;;;;;;;;;14.60;49.59;99040.16;4984803;27;98009;-68
2023/01/15 01:57:00;;;;;;;;;;;;;;;14.59;49.50;99044.81;4998012;27;106673;-68
2023/01/15 01:59:26;;;;;;;;;;;;;;;14.60;49.47;99032.03;4967573;27;108227;-68
2023/01/15 02:01:51;;;;;;;;;;;;;;;14.59;49.39;99035.88;4964610;27;128280;-68
2023/01/15 02:04:18;;;;;;;;;;;;;;;14.60;49.68;99027.41;4995668;27;127636;-69
2023/01/15 02:06:44;;;;;;;;;;;;;;;14.61;49.63;99026.28;4980906;27;116322;-68
2023/01/15 02:09:10;;;;;;;;;;;;;;;14.61;49.52;99022.78;4983947;27;98067;-68
2023/01/15 02:11:36;;;;;;;;;;;;;;;14.62;49.44;99024.34;4970731;27;102163;-68
2023/01/15 02:14:04;;;;;;;;;;;;;;;14.62;49.82;99024.34;4982531;27;130549;-68
2023/01/15 02:16:39;;;;;;;;;;;;;;;14.63;49.46;99021.34;4981284;27;98985;-68
2023/01/15 02:19:22;;;;;;;;;;;;;;;14.63;49.90;99023.25;4981787;27;99421;-68
2023/01/15 02:22:04;;;;;;;;;;;;;;;14.63;49.52;99028.69;5000378;27;98310;-68
2023/01/15 02:24:59;;;;;;;;;;;;;;;14.64;49.57;99022.13;4982799;27;97821;-67
2023/01/15 02:27:25;;;;;;;;;;;;;;;14.64;49.80;99017.50;4999415;27;112253;-65
2023/01/15 02:30:22;;;;;;;;;;;;;;;14.64;49.55;99019.41;4988161;27;129168;-68
2023/01/15 02:32:53;;;;;;;;;;;;;;;14.64;49.70;99011.28;5001577;27;99619;-67
2023/01/15 02:35:30;;;;;;;;;;;;;;;14.65;49.54;99007.44;4962150;27;98207;-67
2023/01/15 02:37:58;;;;;;;;;;;;;;;14.65;49.67;99007.44;4999615;27;100441;-67
2023/01/15 02:40:25;;;;;;;;;;;;;;;14.66;49.38;98992.78;4978773;27;122108;-67
2023/01/15 02:42:53;;;;;;;;;;;;;;;14.66;49.51;98987.34;4983535;27;99717;-67
2023/01/15 02:45:23;;;;;;;;;;;;;;;14.68;49.70;98995.94;4995541;27;116215;-67
2023/01/15 02:47:49;;;;;;;;;;;;;;;14.68;49.71;98993.22;4963599;27;97932;-67
2023/01/15 02:50:16;;;;;;;;;;;;;;;14.68;49.38;98990.50;4980893;27;127505;-67
2023/01/15 02:52:44;;;;;;;;;;;;;;;14.68;49.51;98980.44;4980391;27;116231;-67
2023/01/15 02:55:22;;;;;;;;;;;;;;;14.68;49.69;98983.16;4944993;27;99446;-67
2023/01/15 02:57:48;;;;;;;;;;;;;;;14.70;49.70;98980.13;4946800;27;97908;-68
2023/01/15 03:00:15;;;;;;;;;;;;;;;14.70;49.46;98975.50;4961454;27;100099;-67
2023/01/15 03:02:58;;;;;;;;;;;;;;;14.71;49.63;98974.38;4963390;27;98337;-67
2023/01/15 03:05:56;;;;;;;;;;;;;;;14.72;49.89;98972.44;4991302;27;121563;-67
2023/01/15 03:08:24;;;;;;;;;;;;;;;14.72;49.49;98977.88;4940631;27;98085;-67
2023/01/15 03:11:06;;;;;;;;;;;;;;;14.73;49.58;98977.53;4961800;27;109511;-66
2023/01/15 03:13:51;;;;;;;;;;;;;;;14.73;49.81;98980.25;4977224;27;115303;-66
2023/01/15 03:16:59;;;;;;;;;;;;;;;14.72;49.43;98965.09;4981262;27;98845;-65
2023/01/15 03:19:49;;;;;;;;;;;;;;;14.75;49.67;98957.44;4977236;27;98329;-65
2023/01/15 03:22:27;;;;;;;;;;;;;;;14.74;49.46;98959.38;4965101;27;109679;-67
2023/01/15 03:25:03;;;;;;;;;;;;;;;14.74;49.46;98937.66;4969082;27;99747;-67
2023/01/15 03:27:29;;;;;;;;;;;;;;;14.75;49.43;98933.81;4977470;27;97837;-68
2023/01/15 03:30:12;;;;;;;;;;;;;;;14.76;49.77;98934.63;4965221;27;98406;-67
2023/01/15 03:32:38;;;;;;;;;;;;;;;14.75;49.76;98933.81;4984649;27;99229;-67
2023/01/15 03:35:05;;;;;;;;;;;;;;;14.76;49.39;98931.91;4948608;27;128085;-68
2023/01/15 03:37:31;;;;;;;;;;;;;;;14.76;49.50;98931.91;4963610;27;115652;-68
2023/01/15 03:39:57;;;;;;;;;;;;;;;14.76;49.69;98921.84;4964393;27;98754;-67
2023/01/15 03:42:35;;;;;;;;;;;;;;;14.75;49.59;98922.97;4949451;27;125485;-67
2023/01/15 03:45:24;;;;;;;;;;;;;;;14.76;49.72;98921.84;4964072;27;98226;-66
2023/01/15 03:48:11;;;;;;;;;;;;;;;14.77;49.46;98914.50;4974423;27;98171;-66
2023/01/15 03:50:51;;;;;;;;;;;;;;;14.78;49.68;98916.09;4984154;27;98681;-65
2023/01/15 03:53:22;;;;;;;;;;;;;;;14.78;49.68;98921.53;4989708;27;114895;-66
2023/01/15 03:56:03;;;;;;;;;;;;;;;14.78;49.55;98916.09;4967033;27;98249;-65
2023/01/15 03:58:34;;;;;;;;;;;;;;;14.78;49.67;98922.31;4983189;27;98094;-66
2023/01/15 04:01:00;;;;;;;;;;;;;;;14.78;49.53;98922.31;4952184;27;114636;-65
2023/01/15 04:03:27;;;;;;;;;;;;;;;14.78;49.62;98925.03;4951101;27;98129;-65
2023/01/15 04:05:55;;;;;;;;;;;;;;;14.80;49.92;98922.78;4968038;27;98518;-65
2023/01/15 04:08:21;;;;;;;;;;;;;;;14.80;49.91;98928.19;4969151;27;99507;-65
2023/01/15 04:10:52;;;;;;;;;;;;;;;14.80;49.91;98928.19;4963132;27;98557;-66
2023/01/15 04:13:18;;;;;;;;;;;;;;;14.81;49.54;98928.97;4997062;27;98523;-67
2023/01/15 04:15:43;;;;;;;;;;;;;;;14.81;49.61;98931.69;4963732;27;126154;-67
2023/01/15 04:18:09;;;;;;;;;;;;;;;14.81;49.74;98927.06;4949543;27;128003;-65
2023/01/15 04:20:35;;;;;;;;;;;;;;;14.81;49.88;98924.34;4980331;27;123786;-65
2023/01/15 04:23:01;;;;;;;;;;;;;;;14.81;49.66;98921.63;4963089;27;127562;-66
2023/01/15 04:25:27;;;;;;;;;;;;;;;14.82;49.71;98920.53;4963279;27;119509;-66
2023/01/15 04:27:54;;;;;;;;;;;;;;;14.81;49.51;98910.78;4947354;27;126545;-65
2023/01/15 04:30:20;;;;;;;;;;;;;;;14.81;49.75;98910.00;4996936;27;97851;-66
2023/01/15 04:32:48;;;;;;;;;;;;;;;14.81;49.61;98908.06;4983592;27;98251;-66
2023/01/15 04:35:14;;;;;;;;;;;;;;;14.81;49.83;98897.22;4965550;27;100059;-66
2023/01/15 04:37:40;;;;;;;;;;;;;;;14.82;49.50;98898.03;4980230;27;98235;-66
2023/01/15 04:40:07;;;;;;;;;;;;;;;14.82;49.84;98898.03;4979451;27;120724;-66
2023/01/15 04:45:37;;;;;;;;;;;;;;;14.83;49.74;98894.19;4888558;28;98282;-66
2023/01/15 04:48:04;;;;;;;;;;;;;;;14.83;49.87;98891.47;4895086;28;98140;-66
2023/01/15 04:50:30;;;;;;;;;;;;;;;14.83;49.92;98889.56;4946971;27;97910;-67
2023/01/15 04:52:55;;;;;;;;;;;;;;;14.83;49.64;98877.91;4972444;27;127364;-66
2023/01/15 04:55:21;;;;;;;;;;;;;;;14.84;49.75;98874.06;4986519;27;102283;-67
2023/01/15 04:57:49;;;;;;;;;;;;;;;14.83;49.94;98865.16;4970717;27;128143;-66
2023/01/15 05:00:15;;;;;;;;;;;;;;;14.82;49.87;98860.84;4986410;27;111450;-66
2023/01/15 05:02:41;;;;;;;;;;;;;;;14.84;49.66;98863.22;4966000;27;99458;-67
2023/01/15 05:05:07;;;;;;;;;;;;;;;14.84;49.79;98852.38;4981386;27;127943;-67
2023/01/15 05:07:33;;;;;;;;;;;;;;;14.84;49.90;98852.38;4985502;27;129525;-66
2023/01/15 05:09:59;;;;;;;;;;;;;;;14.83;49.72;98850.78;4983611;27;122210;-66
2023/01/15 05:12:25;;;;;;;;;;;;;;;14.84;49.70;98850.44;4965921;27;129450;-67
2023/01/15 05:14:51;;;;;;;;;;;;;;;14.84;49.84;98847.75;4983282;27;126490;-67
2023/01/15 05:17:17;;;;;;;;;;;;;;;14.85;49.95;98843.91;4982441;27;127735;-67
2023/01/15 05:19:43;;;;;;;;;;;;;;;14.85;49.64;98851.25;4985638;27;120133;-67
2023/01/15 05:22:09;;;;;;;;;;;;;;;14.85;49.84;98846.59;4970930;27;98204;-68
2023/01/15 05:24:35;;;;;;;;;;;;;;;14.87;49.54;98843.56;5000099;27;98435;-68
2023/01/15 05:27:01;;;;;;;;;;;;;;;14.86;49.84;98836.56;4968890;27;112387;-68
2023/01/15 05:29:27;;;;;;;;;;;;;;;14.87;49.64;98846.28;4987878;27;98048;-68
2023/01/15 05:31:53;;;;;;;;;;;;;;;14.87;49.71;98835.44;4967765;27;98244;-68
2023/01/15 05:34:19;;;;;;;;;;;;;;;14.87;49.48;98838.16;4979429;27;127886;-68
2023/01/15 05:36:45;;;;;;;;;;;;;;;14.88;49.90;98834.31;4967551;27;128111;-67
2023/01/15 05:39:11;;;;;;;;;;;;;;;14.88;49.77;98848.66;4968446;27;121882;-68
2023/01/15 05:41:49;;;;;;;;;;;;;;;14.88;49.47;98839.72;4966386;27;127155;-67
2023/01/15 05:44:26;;;;;;;;;;;;;;;14.89;49.53;98833.97;4980935;27;99479;-68
2023/01/15 05:46:53;;;;;;;;;;;;;;;14.90;49.71;98834.78;4989508;27;98288;-67
2023/01/15 05:49:21;;;;;;;;;;;;;;;14.89;49.98;98833.97;4984608;27;98181;-67
2023/01/15 05:51:47;;;;;;;;;;;;;;;14.90;49.69;98832.06;4984273;27;98463;-68
2023/01/15 05:54:24;;;;;;;;;;;;;;;14.91;49.60;98830.94;4940794;27;111386;-68
2023/01/15 05:56:50;;;;;;;;;;;;;;;14.91;49.80;98839.06;4947453;27;99394;-68
2023/01/15 05:59:17;;;;;;;;;;;;;;;14.91;49.65;98845.28;4947781;27;119772;-67
2023/01/15 06:01:43;;;;;;;;;;;;;;;14.92;49.65;98844.16;4947815;27;99043;-67
2023/01/15 06:04:09;;;;;;;;;;;;;;;14.92;49.61;98846.84;4944823;27;98073;-67
2023/01/15 06:06:35;;;;;;;;;;;;;;;14.93;49.58;98842.22;4949211;27;120244;-67
2023/01/15 06:09:02;;;;;;;;;;;;;;;14.93;49.87;98832.19;4957210;27;98090;-67
2023/01/15 06:11:28;;;;;;;;;;;;;;;14.93;49.88;98883.72;4971603;27;98372;-67
2023/01/15 06:13:54;;;;;;;;;;;;;;;14.93;49.75;98905.44;4972334;27;98398;-66
2023/01/15 06:16:20;;;;;;;;;;;;;;;14.95;49.77;98926.78;4947020;27;98048;-66
2023/01/15 06:18:46;;;;;;;;;;;;;;;14.94;49.78;98936.06;4963770;27;98153;-66
2023/01/15 06:21:12;;;;;;;;;;;;;;;14.94;49.74;98957.78;4947840;27;98181;-66
2023/01/15 06:23:38;;;;;;;;;;;;;;;14.94;49.73;98955.06;4967661;27;121002;-67
2023/01/15 06:26:15;;;;;;;;;;;;;;;14.91;49.72;98948.38;4966321;27;99319;-66
2023/01/15 06:28:41;;;;;;;;;;;;;;;14.90;49.66;98957.63;4946091;27;98399;-66
2023/01/15 06:31:08;;;;;;;;;;;;;;;14.87;49.93;98979.22;4963926;27;122426;-66
2023/01/15 06:33:34;;;;;;;;;;;;;;;14.84;50.04;98988.00;4966754;27;98544;-66
2023/01/15 06:36:08;;;;;;;;;;;;;;;14.80;49.75;99015.00;4947986;27;98058;-66
2023/01/15 06:38:34;;;;;;;;;;;;;;;14.76;49.94;99027.63;4979895;27;98559;-67
2023/01/15 06:41:01;;;;;;;;;;;;;;;14.71;49.79;99044.88;4947846;27;116470;-66
2023/01/15 06:48:56;;;;;;;;;;;;;;;14.61;50.32;99072.38;4968131;27;98004;-66
2023/01/15 06:51:22;;;;;;;;;;;;;;;14.58;49.97;99077.66;4964730;27;128671;-67
2023/01/15 06:53:48;;;;;;;;;;;;;;;14.55;50.03;99086.47;4982630;27;98232;-67
2023/01/15 06:56:14;;;;;;;;;;;;;;;14.52;50.11;99085.19;4988282;27;98026;-67
2023/01/15 06:58:43;;;;;;;;;;;;;;;14.48;49.83;99085.00;4987373;27;100327;-66
2023/01/15 07:01:10;;;;;;;;;;;;;;;14.46;49.98;99100.00;4988512;27;98269;-67
2023/01/15 07:03:36;;;;;;;;;;;;;;;14.43;49.70;99100.69;4985227;27;98594;-67
2023/01/15 07:06:07;;;;;;;;;;;;;;;14.42;50.10;99105.31;4993059;27;112457;-66
2023/01/15 07:08:33;;;;;;;;;;;;;;;14.39;49.85;99105.16;4985597;27;123902;-67
2023/01/15 07:11:06;;;;;;;;;;;;;;;14.37;50.19;99101.97;4987159;27;99348;-67
2023/01/15 07:13:32;;;;;;;;;;;;;;;14.36;50.11;99103.09;4983418;27;112817;-68
2023/01/15 07:15:59;;;;;;;;;;;;;;;14.34;50.08;99110.75;4983681;27;126910;-68
2023/01/15 07:18:25;;;;;;;;;;;;;;;14.33;50.17;99103.72;4966181;27;111611;-67
2023/01/15 07:20:56;;;;;;;;;;;;;;;14.32;49.94;99104.88;4999415;27;114931;-67
2023/01/15 07:23:24;;;;;;;;;;;;;;;14.31;49.83;99103.28;4986552;27;98985;-67
2023/01/15 07:25:52;;;;;;;;;;;;;;;14.30;49.76;99110.59;4987285;27;98668;-68
2023/01/15 07:28:19;;;;;;;;;;;;;;;14.30;49.73;99116.00;4999504;27;119375;-67
2023/01/15 07:30:45;;;;;;;;;;;;;;;14.29;49.74;99125.28;4977354;27;99588;-67
2023/01/15 07:33:11;;;;;;;;;;;;;;;14.29;49.84;99127.19;4981592;27;98702;-67
2023/01/15 07:35:37;;;;;;;;;;;;;;;14.29;49.84;99136.09;4963491;27;98109;-67
2023/01/15 07:38:03;;;;;;;;;;;;;;;14.29;50.13;99141.53;4964565;27;122492;-67
2023/01/15 07:40:29;;;;;;;;;;;;;;;14.29;50.11;99141.53;4980725;27;125250;-67
2023/01/15 07:51:10;;;;;;;;;;;;;;;14.30;49.74;99161.28;4970394;27;102813;-68
2023/01/15 07:53:35;;;;;;;;;;;;;;;14.30;49.64;99170.22;4967873;27;128836;-66
2023/01/15 07:56:01;;;;;;;;;;;;;;;14.30;50.14;99185.69;4979160;27;127386;-66
2023/01/15 07:58:27;;;;;;;;;;;;;;;14.30;49.66;99181.06;4975570;27;122605;-67
2023/01/15 08:00:53;;;;;;;;;;;;;;;14.32;49.82;99191.59;4950771;27;127683;-67
2023/01/15 08:03:19;;;;;;;;;;;;;;;14.31;49.83;99188.09;4978791;27;128145;-67
2023/01/15 08:05:45;;;;;;;;;;;;;;;14.30;49.94;99191.91;4962686;27;126805;-66
2023/01/15 08:08:15;;;;;;;;;;;;;;;14.32;49.74;99197.00;4998888;27;123624;-67
2023/01/15 08:16:10;;;;;;;;;;;;;;;14.34;49.62;99211.03;4094365;27;10000844;-66
2023/01/15 08:18:37;;;;;;;;;;;;;;;14.33;49.65;99207.53;4963105;27;99441;-67
2023/01/15 08:21:03;;;;;;;;;;;;;;;14.34;49.69;99216.44;4977629;27;98682;-67
2023/01/15 08:23:29;;;;;;;;;;;;;;;14.34;49.93;99222.66;5009684;27;97973;-67
2023/01/15 08:25:58;;;;;;;;;;;;;;;14.34;49.59;99225.38;4978875;27;98538;-67
2023/01/15 08:28:24;;;;;;;;;;;;;;;14.34;49.74;99244.34;4980347;27;98287;-66
2023/01/15 08:30:50;;;;;;;;;;;;;;;14.33;49.94;99247.38;4964273;27;124549;-66
2023/01/15 08:33:16;;;;;;;;;;;;;;;14.33;49.70;99247.38;4962738;27;98087;-66
2023/01/15 08:35:42;;;;;;;;;;;;;;;14.32;49.86;99251.22;4965999;27;128695;-66
2023/01/15 08:38:08;;;;;;;;;;;;;;;14.31;49.83;99238.81;4980881;27;129319;-67
2023/01/15 08:40:35;;;;;;;;;;;;;;;14.30;49.71;99237.97;4965385;27;98141;-67
2023/01/15 08:43:01;;;;;;;;;;;;;;;14.30;49.62;99237.97;4963945;27;98446;-66
2023/01/15 08:45:27;;;;;;;;;;;;;;;14.30;49.80;99232.56;4976731;27;113900;-66
2023/01/15 08:47:57;;;;;;;;;;;;;;;14.32;49.95;99234.97;4977860;27;128209;-66
2023/01/15 08:50:23;;;;;;;;;;;;;;;14.31;49.48;99239.59;4963766;27;98545;-67
2023/01/15 08:52:49;;;;;;;;;;;;;;;14.33;49.57;99242.75;4982722;27;99802;-66
2023/01/15 08:55:15;;;;;;;;;;;;;;;14.34;49.71;99244.34;4963599;27;127605;-66
2023/01/15 08:57:40;;;;;;;;;;;;;;;14.37;49.52;99230.16;4961163;27;127973;-67
2023/01/15 09:00:07;;;;;;;;;;;;;;;14.38;49.45;99228.25;4963233;27;103525;-66
2023/01/15 09:02:33;;;;;;;;;;;;;;;14.41;49.49;99222.19;4963074;27;99870;-66
2023/01/15 09:04:59;;;;;;;;;;;;;;;14.40;49.76;99221.38;4979608;27;126593;-68
2023/01/15 09:07:25;;;;;;;;;;;;;;;14.41;49.36;99222.19;4978433;27;127843;-67
2023/01/15 09:09:51;;;;;;;;;;;;;;;14.40;49.72;99215.19;4981404;27;128096;-67
2023/01/15 09:12:17;;;;;;;;;;;;;;;14.39;49.81;99224.44;5003847;27;98010;-68
2023/01/15 09:14:42;;;;;;;;;;;;;;;14.38;49.86;99241.78;5013739;27;98681;-66
2023/01/15 09:17:08;;;;;;;;;;;;;;;14.36;49.75;99244.84;4963450;27;128911;-67
2023/01/15 09:19:34;;;;;;;;;;;;;;;14.35;49.45;99251.38;4968385;27;117652;-67
2023/01/15 09:22:00;;;;;;;;;;;;;;;14.35;50.00;99250.59;4965219;27;122291;-67
2023/01/15 09:24:26;;;;;;;;;;;;;;;14.35;49.61;99245.16;4965332;27;130288;-67
2023/01/15 09:26:52;;;;;;;;;;;;;;;14.34;49.91;99236.22;5015738;27;98625;-67
2023/01/15 09:29:18;;;;;;;;;;;;;;;14.35;49.69;99223.50;4979320;27;98220;-66
2023/01/15 09:31:44;;;;;;;;;;;;;;;14.34;49.57;99222.66;4965127;27;98412;-66
2023/01/15 09:34:10;;;;;;;;;;;;;;;14.33;49.80;99212.16;4966871;27;128153;-65
2023/01/15 09:36:36;;;;;;;;;;;;;;;14.32;49.56;99205.94;4977570;27;129083;-66
2023/01/15 09:39:02;;;;;;;;;;;;;;;14.31;49.80;99214.41;4965053;27;98012;-66
2023/01/15 09:42:07;;;;;;;;;;;;;;;14.32;49.88;99224.13;4982512;27;98125;-66
2023/01/15 09:44:52;;;;;;;;;;;;;;;14.32;50.06;99218.69;4997463;27;100026;-68
2023/01/15 09:47:29;;;;;;;;;;;;;;;14.33;49.43;99226.50;5015781;27;98252;-67
2023/01/15 09:50:17;;;;;;;;;;;;;;;14.33;49.49;99217.56;4982316;27;99506;-67
2023/01/15 09:52:49;;;;;;;;;;;;;;;14.33;49.77;99212.94;5012354;27;98619;-67
2023/01/15 09:55:16;;;;;;;;;;;;;;;14.35;49.55;99201.81;4999422;27;99493;-66
2023/01/15 09:57:43;;;;;;;;;;;;;;;14.36;49.52;99217.72;4999719;27;119656;-67
2023/01/15 10:00:25;;;;;;;;;;;;;;;14.39;49.76;99221.72;4979065;27;99367;-67
2023/01/15 10:03:03;;;;;;;;;;;;;;;14.39;49.62;99227.16;4995409;27;98148;-67
2023/01/15 10:05:52;;;;;;;;;;;;;;;14.40;49.64;99226.81;4977754;27;114564;-67
2023/01/15 10:08:38;;;;;;;;;;;;;;;14.41;49.51;99219.47;5012549;27;98440;-67
2023/01/15 10:11:14;;;;;;;;;;;;;;;14.41;49.49;99214.84;4978789;27;98426;-67
2023/01/15 10:13:48;;;;;;;;;;;;;;;14.43;49.78;99214.53;4991604;27;98237;-67
2023/01/15 10:16:40;;;;;;;;;;;;;;;14.44;49.67;99216.13;4999699;27;100166;-67
2023/01/15 10:19:08;;;;;;;;;;;;;;;14.45;49.72;99204.94;4973753;27;126069;-67
2023/01/15 10:21:46;;;;;;;;;;;;;;;14.48;49.41;99211.66;4952351;28;122694;-67
2023/01/15 10:24:39;;;;;;;;;;;;;;;14.49;49.55;99207.84;4968373;27;98086;-67
2023/01/15 10:27:17;;;;;;;;;;;;;;;14.53;49.67;99211.50;4987650;27;114103;-68
2023/01/15 10:30:05;;;;;;;;;;;;;;;14.59;49.32;99212.13;4962218;27;124979;-67
2023/01/15 10:32:48;;;;;;;;;;;;;;;14.64;49.04;99211.94;4964060;27;121299;-67
2023/01/15 10:35:40;;;;;;;;;;;;;;;14.68;49.21;99199.31;4981244;27;97994;-67
2023/01/15 10:38:23;;;;;;;;;;;;;;;14.72;49.45;99209.19;4979104;27;98334;-68
2023/01/15 10:41:39;;;;;;;;;;;;;;;14.74;49.09;99206.19;4961238;27;98197;-68
2023/01/15 10:44:14;;;;;;;;;;;;;;;14.77;49.22;99221.78;4907027;28;98703;-68
2023/01/15 10:46:40;;;;;;;;;;;;;;;14.80;49.28;99226.56;4970008;27;104731;-68
2023/01/15 10:49:14;;;;;;;;;;;;;;;14.83;48.98;99227.84;4982134;27;98887;-68
2023/01/15 10:51:54;;;;;;;;;;;;;;;14.85;49.12;99231.81;4975205;27;98444;-68
2023/01/15 10:54:39;;;;;;;;;;;;;;;14.88;49.26;99230.38;4965928;27;99492;-68
2023/01/15 10:57:14;;;;;;;;;;;;;;;14.91;49.10;99241.38;4981406;27;98543;-67
2023/01/15 10:59:59;;;;;;;;;;;;;;;14.94;49.19;99234.50;4981056;27;106789;-67
2023/01/15 11:02:41;;;;;;;;;;;;;;;14.96;49.31;99241.19;4994289;27;113813;-67
2023/01/15 11:05:16;;;;;;;;;;;;;;;14.98;49.10;99254.44;4978012;27;98202;-69
2023/01/15 11:07:47;;;;;;;;;;;;;;;14.98;49.14;99260.66;4980484;27;98154;-67
2023/01/15 11:10:14;;;;;;;;;;;;;;;14.96;49.35;99257.44;4964459;27;100138;-67
2023/01/15 11:21:16;;;;;;;;;;;;;;;14.95;49.35;99250.44;4992014;27;98408;-67
2023/01/15 11:23:42;;;;;;;;;;;;;;;14.93;49.19;99246.44;4959249;27;100085;-67
2023/01/15 11:26:08;;;;;;;;;;;;;;;14.91;49.59;99246.00;4981329;27;98243;-68
2023/01/15 11:28:38;;;;;;;;;;;;;;;14.87;49.10;99240.44;4972097;27;113589;-68
2023/01/15 11:31:05;;;;;;;;;;;;;;;14.85;49.55;99248.06;4980592;27;98177;-67
2023/01/15 11:33:31;;;;;;;;;;;;;;;14.82;49.23;99251.47;4997359;27;116643;-67
2023/01/15 11:36:02;;;;;;;;;;;;;;;14.80;49.55;99250.97;4976247;27;127633;-68
2023/01/15 11:38:30;;;;;;;;;;;;;;;14.77;49.27;99235.34;4976432;27;98087;-68
2023/01/15 11:40:58;;;;;;;;;;;;;;;14.78;49.23;99242.38;4973501;27;113128;-69
2023/01/15 11:52:05;;;;;;;;;;;;;;;14.86;49.47;99241.56;5000704;27;98250;-68
2023/01/15 11:54:31;;;;;;;;;;;;;;;14.88;49.18;99231.16;4985363;27;117520;-68
2023/01/15 11:56:57;;;;;;;;;;;;;;;14.97;49.02;99237.38;4997272;27;116366;-67
2023/01/15 11:59:23;;;;;;;;;;;;;;;15.05;49.15;99235.72;4980731;27;123906;-68
2023/01/15 12:02:11;;;;;;;;;;;;;;;15.14;49.08;99241.13;4956325;27;107845;-67
2023/01/15 12:04:55;;;;;;;;;;;;;;;15.18;49.09;99240.13;4985936;27;98106;-67
2023/01/15 12:07:23;;;;;;;;;;;;;;;15.23;48.80;99229.06;4977924;27;98174;-67
2023/01/15 12:10:13;;;;;;;;;;;;;;;15.28;49.08;99225.38;4954402;27;104248;-68
2023/01/15 12:13:01;;;;;;;;;;;;;;;15.36;48.96;99240.03;4986259;27;97882;-67
2023/01/15 12:15:31;;;;;;;;;;;;;;;15.42;48.86;99225.16;4986086;27;98105;-69
2023/01/15 12:18:29;;;;;;;;;;;;;;;15.46;48.68;99236.94;4977572;27;98105;-67
2023/01/15 12:21:27;;;;;;;;;;;;;;;15.50;48.94;99242.50;4983845;27;110568;-67
2023/01/15 12:24:09;;;;;;;;;;;;;;;15.49;49.03;99243.66;4979922;27;98328;-67
2023/01/15 12:26:58;;;;;;;;;;;;;;;15.50;48.90;99234.38;4989310;27;101001;-69
2023/01/15 12:29:34;;;;;;;;;;;;;;;15.52;48.71;99213.09;4987742;27;98202;-67
2023/01/15 12:32:15;;;;;;;;;;;;;;;15.54;48.83;99216.28;4986849;27;98566;-67
2023/01/15 12:35:01;;;;;;;;;;;;;;;15.57;48.97;99237.34;4987111;27;100823;-68
2023/01/15 12:37:36;;;;;;;;;;;;;;;15.57;48.76;99235.44;4957706;27;103018;-68
2023/01/15 12:40:49;;;;;;;;;;;;;;;15.62;48.99;99235.22;4080902;27;10000847;-67
2023/01/15 12:46:05;;;;;;;;;;;;;;;15.69;48.86;99229.31;4974833;27;98292;-68
2023/01/15 12:49:25;;;;;;;;;;;;;;;15.69;48.78;99227.38;4074345;27;10000403;-69
2023/01/15 12:52:23;;;;;;;;;;;;;;;15.70;48.76;99226.25;4907299;28;98567;-68
2023/01/15 12:55:14;;;;;;;;;;;;;;;15.71;48.90;99211.53;4079815;27;10000527;-68
2023/01/15 12:57:45;;;;;;;;;;;;;;;15.70;48.88;99215.38;4094833;27;10001118;-67
2023/01/15 13:00:18;;;;;;;;;;;;;;;15.70;48.87;99220.81;4080823;27;10000887;-69
2023/01/15 13:02:53;;;;;;;;;;;;;;;15.70;48.97;99212.66;4087454;27;10000636;-67
2023/01/15 13:05:30;;;;;;;;;;;;;;;15.69;48.89;99219.25;4994311;27;98298;-67
2023/01/15 13:08:12;;;;;;;;;;;;;;;15.70;49.02;99228.97;4959701;27;111876;-67
2023/01/15 13:10:38;;;;;;;;;;;;;;;15.69;48.86;99240.19;4976394;27;99193;-67
2023/01/15 13:13:14;;;;;;;;;;;;;;;15.66;49.08;99238.13;4971021;27;100034;-69
2023/01/15 13:15:45;;;;;;;;;;;;;;;15.62;49.09;99240.66;4996547;27;98688;-67
2023/01/15 13:18:39;;;;;;;;;;;;;;;15.55;49.21;99256.69;4975643;27;107148;-66
2023/01/15 13:21:12;;;;;;;;;;;;;;;15.49;49.21;99260.72;4995408;27;98724;-68
2023/01/15 13:24:01;;;;;;;;;;;;;;;15.45;49.25;99257.06;4963928;27;119151;-68
2023/01/15 13:26:54;;;;;;;;;;;;;;;15.43;49.37;99245.75;4997295;27;98265;-68
2023/01/15 13:29:25;;;;;;;;;;;;;;;15.41;49.29;99243.38;4974524;27;98958;-69
2023/01/15 13:32:11;;;;;;;;;;;;;;;15.39;49.30;99258.38;4998766;27;98160;-67
2023/01/15 13:34:45;;;;;;;;;;;;;;;15.34;49.31;99266.72;4996510;27;98495;-68
2023/01/15 13:37:17;;;;;;;;;;;;;;;15.29;49.31;99254.13;4983157;27;104216;-70
2023/01/15 13:39:43;;;;;;;;;;;;;;;15.27;49.46;99261.78;4948688;27;121770;-68
2023/01/15 13:42:34;;;;;;;;;;;;;;;15.30;49.36;99269.28;4973399;27;104132;-68
2023/01/15 13:45:13;;;;;;;;;;;;;;;15.26;49.21;99271.06;4960709;27;100528;-68
2023/01/15 13:47:44;;;;;;;;;;;;;;;15.22;49.42;99272.84;4971354;27;98536;-67
2023/01/15 13:50:15;;;;;;;;;;;;;;;15.17;49.20;99276.53;4978011;27;99462;-68